createdAt,value
2023-03-01T00:00:23.266Z,4.530
2023-03-01T00:01:22.555Z,4.534
2023-03-01T00:02:21.389Z,4.514
2023-03-01T00:03:21.966Z,4.5
2023-03-01T00:04:22.592Z,4.5
2023-03-01T00:05:22.684Z,4.474
2023-03-01T00:06:22.309Z,4.454
2023-03-01T00:07:21.864Z,4.467
2023-03-01T00:08:22.172Z,4.467
2023-03-01T00:09:21.088Z,4.489
2023-03-01T00:10:22.287Z,4.483
2023-03-01T00:11:21.598Z,4.5
2023-03-01T00:12:22.412Z,4.488
2023-03-01T00:13:22.062Z,4.486
2023-03-01T00:14:22.129Z,4.5
2023-03-01T00:15:22.571Z,4.480
2023-03-01T00:16:21.873Z,4.465
2023-03-01T00:17:21.337Z,4.434
2023-03-01T00:18:21.740Z,4.420
2023-03-01T00:19:21.649Z,4.425
2023-03-01T00:20:22.379Z,4.425
2023-03-01T00:21:22.247Z,4.394
2023-03-01T00:22:21.701Z,4.409
2023-03-01T00:23:21.450Z,4.434
2023-03-01T00:24:22.120Z,4.429
2023-03-01T00:25:21.343Z,4.400
2023-03-01T00:26:21.881Z,4.389
2023-03-01T00:27:21.740Z,4.385
2023-03-01T00:28:21.409Z,4.388
2023-03-01T00:29:21.905Z,4.349
2023-03-01T00:30:22.295Z,4.355
2023-03-01T00:31:21.413Z,4.356
2023-03-01T00:32:21.288Z,4.355
2023-03-01T00:33:21.795Z,4.344
2023-03-01T00:34:21.376Z,4.373
2023-03-01T00:35:22.380Z,4.349
2023-03-01T00:36:21.785Z,4.315
2023-03-01T00:37:21.332Z,4.300
2023-03-01T00:38:21.680Z,4.315
2023-03-01T00:39:21.916Z,4.321
2023-03-01T00:40:22.389Z,4.304
2023-03-01T00:41:21.970Z,4.304
2023-03-01T00:42:21.886Z,4.295
2023-03-01T00:43:21.924Z,4.255
2023-03-01T00:44:21.050Z,4.264
2023-03-01T00:45:22.070Z,4.280
2023-03-01T00:46:21.617Z,4.284
2023-03-01T00:47:21.560Z,4.280
2023-03-01T00:48:21.356Z,4.255
2023-03-01T00:49:21.789Z,4.25
2023-03-01T00:50:21.558Z,4.25
2023-03-01T00:51:22.202Z,4.219
2023-03-01T00:52:21.267Z,4.215
2023-03-01T00:53:21.244Z,4.230
2023-03-01T00:54:21.713Z,4.224
2023-03-01T00:55:22.270Z,4.215
2023-03-01T00:56:21.361Z,4.190
2023-03-01T00:57:22.299Z,4.184
2023-03-01T00:58:21.164Z,4.171
2023-03-01T00:59:21.021Z,4.137
2023-03-01T01:00:23.342Z,4.143
2023-03-01T01:01:24.833Z,4.094
2023-03-01T01:02:21.903Z,4.050
2023-03-01T01:03:21.344Z,4.030
2023-03-01T01:04:21.769Z,4.019
2023-03-01T01:05:22.411Z,4.019
2023-03-01T01:06:21.588Z,4.005
2023-03-01T01:07:21.655Z,4.010
2023-03-01T01:08:21.249Z,4.005
2023-03-01T01:09:21.257Z,4.010
2023-03-01T01:10:21.497Z,4.014
2023-03-01T01:11:21.855Z,4.019
2023-03-01T01:12:21.702Z,4.005
2023-03-01T01:13:20.832Z,4.030
2023-03-01T01:14:21.443Z,4.025
2023-03-01T01:15:22.059Z,4
2023-03-01T01:16:21.429Z,4.014
2023-03-01T01:17:21.983Z,4.005
2023-03-01T01:18:20.955Z,4.014
2023-03-01T01:19:21.097Z,4
2023-03-01T01:20:21.918Z,3.984
2023-03-01T01:21:20.950Z,3.974
2023-03-01T01:22:21.813Z,3.970
2023-03-01T01:23:21.705Z,3.940
2023-03-01T01:24:22.045Z,3.934
2023-03-01T01:25:21.771Z,3.984
2023-03-01T01:26:22.136Z,3.945
2023-03-01T01:27:21.046Z,3.953
2023-03-01T01:28:21.246Z,3.940
2023-03-01T01:29:21.159Z,3.944
2023-03-01T01:30:21.861Z,3.930
2023-03-01T01:31:21.420Z,3.956
2023-03-01T01:32:22.298Z,3.940
2023-03-01T01:33:21.458Z,3.907
2023-03-01T01:34:21.732Z,3.924
2023-03-01T01:35:21.346Z,3.903
2023-03-01T01:36:21.341Z,3.896
2023-03-01T01:37:21.972Z,3.930
2023-03-01T01:38:21.181Z,3.884
2023-03-01T01:39:21.320Z,3.890
2023-03-01T01:40:21.689Z,3.894
2023-03-01T01:41:21.647Z,3.884
2023-03-01T01:42:21.840Z,3.888
2023-03-01T01:43:21.324Z,3.879
2023-03-01T01:44:21.727Z,3.845
2023-03-01T01:45:21.727Z,3.849
2023-03-01T01:46:21.489Z,3.849
2023-03-01T01:47:21.011Z,3.838
2023-03-01T01:48:21.848Z,3.821
2023-03-01T01:49:21.156Z,3.810
2023-03-01T01:50:20.942Z,3.795
2023-03-01T01:51:21.281Z,3.799
2023-03-01T01:52:21.641Z,3.775
2023-03-01T01:53:21.837Z,3.769
2023-03-01T01:54:21.598Z,3.755
2023-03-01T01:55:21.384Z,3.734
2023-03-01T01:56:20.795Z,3.710
2023-03-01T01:57:21.536Z,3.687
2023-03-01T01:58:20.895Z,3.637
2023-03-01T01:59:21.796Z,3.631
2023-03-01T02:00:22.342Z,3.631
2023-03-01T02:01:37.175Z,3.638
2023-03-01T02:02:22.171Z,3.627
2023-03-01T02:03:22.611Z,3.585
2023-03-01T02:04:21.894Z,3.595
2023-03-01T02:05:21.462Z,3.605
2023-03-01T02:06:21.483Z,3.599
2023-03-01T02:07:22.141Z,3.605
2023-03-01T02:08:21.467Z,3.595
2023-03-01T02:09:21.483Z,3.565
2023-03-01T02:10:21.569Z,3.549
2023-03-01T02:11:21.402Z,3.519
2023-03-01T02:12:22.265Z,3.480
2023-03-01T02:13:21.761Z,3.474
2023-03-01T02:14:21.781Z,3.460
2023-03-01T02:15:22.948Z,3.480
2023-03-01T02:16:21.418Z,3.450
2023-03-01T02:17:21.695Z,3.450
2023-03-01T02:18:21.334Z,3.490
2023-03-01T02:19:21.588Z,3.480
2023-03-01T02:20:21.604Z,3.474
2023-03-01T02:21:21.818Z,3.470
2023-03-01T02:22:21.264Z,3.470
2023-03-01T02:23:21.295Z,3.470
2023-03-01T02:24:21.144Z,3.454
2023-03-01T02:25:21.804Z,3.434
2023-03-01T02:26:22.125Z,3.434
2023-03-01T02:27:21.196Z,3.410
2023-03-01T02:28:21.545Z,3.384
2023-03-01T02:29:21.666Z,3.434
2023-03-01T02:30:21.737Z,3.414
2023-03-01T02:31:21.472Z,3.394
2023-03-01T02:32:21.960Z,3.379
2023-03-01T02:33:22.106Z,3.384
2023-03-01T02:34:21.617Z,3.372
2023-03-01T02:35:21.863Z,3.345
2023-03-01T02:36:21.912Z,3.315
2023-03-01T02:37:21.915Z,3.338
2023-03-01T02:38:21.779Z,3.355
2023-03-01T02:39:21.544Z,3.332
2023-03-01T02:40:21.497Z,3.299
2023-03-01T02:41:22.227Z,3.259
2023-03-01T02:42:21.823Z,3.269
2023-03-01T02:43:21.584Z,3.269
2023-03-01T02:44:22.159Z,3.255
2023-03-01T02:45:22.015Z,3.240
2023-03-01T02:46:21.500Z,3.240
2023-03-01T02:47:21.847Z,3.255
2023-03-01T02:48:21.419Z,3.240
2023-03-01T02:49:22.294Z,3.228
2023-03-01T02:50:21.549Z,3.259
2023-03-01T02:51:21.838Z,3.255
2023-03-01T02:52:21.249Z,3.230
2023-03-01T02:53:21.437Z,3.245
2023-03-01T02:54:21.847Z,3.206
2023-03-01T02:55:21.608Z,3.240
2023-03-01T02:56:21.852Z,3.222
2023-03-01T02:57:21.652Z,3.220
2023-03-01T02:58:22.209Z,3.209
2023-03-01T02:59:22.335Z,3.189
2023-03-01T03:00:23.832Z,3.160
2023-03-01T03:01:22.388Z,3.148
2023-03-01T03:02:22.269Z,3.171
2023-03-01T03:03:21.612Z,3.171
2023-03-01T03:04:21.574Z,3.165
2023-03-01T03:05:22.163Z,3.178
2023-03-01T03:06:21.551Z,3.137
2023-03-01T03:07:20.999Z,3.137
2023-03-01T03:08:20.981Z,3.148
2023-03-01T03:09:21.971Z,3.125
2023-03-01T03:10:21.532Z,3.137
2023-03-01T03:11:21.485Z,3.148
2023-03-01T03:12:21.318Z,3.137
2023-03-01T03:13:21.494Z,3.137
2023-03-01T03:14:21.406Z,3.119
2023-03-01T03:15:21.697Z,3.148
2023-03-01T03:16:21.447Z,3.154
2023-03-01T03:17:21.722Z,3.178
2023-03-01T03:18:22.295Z,3.160
2023-03-01T03:19:21.566Z,3.160
2023-03-01T03:20:22.395Z,3.178
2023-03-01T03:21:22.445Z,3.184
2023-03-01T03:22:22.682Z,3.178
2023-03-01T03:23:21.861Z,3.160
2023-03-01T03:24:21.606Z,3.154
2023-03-01T03:25:22.905Z,3.160
2023-03-01T03:26:21.422Z,3.165
2023-03-01T03:27:21.709Z,3.148
2023-03-01T03:28:21.502Z,3.178
2023-03-01T03:29:21.843Z,3.171
2023-03-01T03:30:22.227Z,3.148
2023-03-01T03:31:21.856Z,3.125
2023-03-01T03:32:22.010Z,3.138
2023-03-01T03:33:22.122Z,3.131
2023-03-01T03:34:22.092Z,3.131
2023-03-01T03:35:21.826Z,3.137
2023-03-01T03:36:21.813Z,3.105
2023-03-01T03:37:21.469Z,3.099
2023-03-01T03:38:21.632Z,3.120
2023-03-01T03:39:21.522Z,3.125
2023-03-01T03:40:21.527Z,3.127
2023-03-01T03:41:21.785Z,3.105
2023-03-01T03:42:22.025Z,3.079
2023-03-01T03:43:21.988Z,3.069
2023-03-01T03:44:21.464Z,3.065
2023-03-01T03:45:22.026Z,3.095
2023-03-01T03:46:21.151Z,3.069
2023-03-01T03:47:21.367Z,3.085
2023-03-01T03:48:21.347Z,3.089
2023-03-01T03:49:22.657Z,3.085
2023-03-01T03:50:21.761Z,3.075
2023-03-01T03:51:20.923Z,3.059
2023-03-01T03:52:21.551Z,3.075
2023-03-01T03:53:21.271Z,3.059
2023-03-01T03:54:21.661Z,3.045
2023-03-01T03:55:22.745Z,3.049
2023-03-01T03:56:21.281Z,3.035
2023-03-01T03:57:22.092Z,3.005
2023-03-01T03:58:21.597Z,2.994
2023-03-01T03:59:22.433Z,2.980
2023-03-01T04:00:23.536Z,2.994
2023-03-01T04:01:21.971Z,2.970
2023-03-01T04:02:22.137Z,2.967
2023-03-01T04:03:21.704Z,2.926
2023-03-01T04:04:21.948Z,2.914
2023-03-01T04:05:21.897Z,2.907
2023-03-01T04:06:21.814Z,2.888
2023-03-01T04:07:21.918Z,2.923
2023-03-01T04:08:21.269Z,2.921
2023-03-01T04:09:21.601Z,2.934
2023-03-01T04:10:22.606Z,2.944
2023-03-01T04:11:21.291Z,2.954
2023-03-01T04:12:21.281Z,2.954
2023-03-01T04:13:21.358Z,2.954
2023-03-01T04:14:21.617Z,2.954
2023-03-01T04:15:22.686Z,2.934
2023-03-01T04:16:30.479Z,2.940
2023-03-01T04:17:21.364Z,2.950
2023-03-01T04:18:21.726Z,2.950
2023-03-01T04:19:21.470Z,2.944
2023-03-01T04:20:21.816Z,2.940
2023-03-01T04:21:21.983Z,2.944
2023-03-01T04:22:21.547Z,2.910
2023-03-01T04:23:21.508Z,2.904
2023-03-01T04:24:21.668Z,2.904
2023-03-01T04:25:22.072Z,2.861
2023-03-01T04:26:21.264Z,2.832
2023-03-01T04:27:21.436Z,2.765
2023-03-01T04:28:21.854Z,2.755
2023-03-01T04:29:21.227Z,2.765
2023-03-01T04:30:21.785Z,2.775
2023-03-01T04:31:21.467Z,2.769
2023-03-01T04:32:21.498Z,2.740
2023-03-01T04:33:22.147Z,2.730
2023-03-01T04:34:22.126Z,2.740
2023-03-01T04:35:21.636Z,2.755
2023-03-01T04:36:22.569Z,2.740
2023-03-01T04:37:21.687Z,2.744
2023-03-01T04:38:22.248Z,2.765
2023-03-01T04:39:21.839Z,2.759
2023-03-01T04:40:22.036Z,2.720
2023-03-01T04:41:22.485Z,2.714
2023-03-01T04:42:22.325Z,2.660
2023-03-01T04:43:22.575Z,2.683
2023-03-01T04:44:21.936Z,2.694
2023-03-01T04:45:22.158Z,2.703
2023-03-01T04:46:22.216Z,2.678
2023-03-01T04:47:21.697Z,2.677
2023-03-01T04:48:44.131Z,2.665
2023-03-01T04:49:21.872Z,2.700
2023-03-01T04:50:21.935Z,2.694
2023-03-01T04:51:21.745Z,2.631
2023-03-01T04:52:22.260Z,2.665
2023-03-01T04:53:21.369Z,2.648
2023-03-01T04:54:21.663Z,2.665
2023-03-01T04:55:22.337Z,2.660
2023-03-01T04:56:22.326Z,2.615
2023-03-01T04:57:21.824Z,2.615
2023-03-01T04:58:21.142Z,2.615
2023-03-01T04:59:21.915Z,2.638
2023-03-01T05:00:23.431Z,2.621
2023-03-01T05:01:22.399Z,2.609
2023-03-01T05:02:22.715Z,2.589
2023-03-01T05:03:21.894Z,2.575
2023-03-01T05:04:21.802Z,2.555
2023-03-01T05:05:22.865Z,2.529
2023-03-01T05:06:22.704Z,2.509
2023-03-01T05:07:22.539Z,2.509
2023-03-01T05:08:21.683Z,2.515
2023-03-01T05:09:21.556Z,2.5
2023-03-01T05:10:21.835Z,2.505
2023-03-01T05:11:21.794Z,2.470
2023-03-01T05:12:21.610Z,2.470
2023-03-01T05:13:22.063Z,2.444
2023-03-01T05:14:21.530Z,2.414
2023-03-01T05:15:22.557Z,2.394
2023-03-01T05:16:21.710Z,2.339
2023-03-01T05:17:22.420Z,2.315
2023-03-01T05:18:22.146Z,2.310
2023-03-01T05:19:21.595Z,2.315
2023-03-01T05:20:22.437Z,2.311
2023-03-01T05:21:22.162Z,2.305
2023-03-01T05:22:21.936Z,2.309
2023-03-01T05:23:21.690Z,2.269
2023-03-01T05:24:21.519Z,2.240
2023-03-01T05:25:22.560Z,2.240
2023-03-01T05:26:28.714Z,2.243
2023-03-01T05:27:21.313Z,2.265
2023-03-01T05:28:21.775Z,2.265
2023-03-01T05:29:21.373Z,2.268
2023-03-01T05:30:21.720Z,2.259
2023-03-01T05:31:22.131Z,2.265
2023-03-01T05:32:21.895Z,2.275
2023-03-01T05:33:22.084Z,2.265
2023-03-01T05:34:21.535Z,2.299
2023-03-01T05:35:22.125Z,2.289
2023-03-01T05:36:21.500Z,2.25
2023-03-01T05:37:21.673Z,2.200
2023-03-01T05:38:21.433Z,2.178
2023-03-01T05:39:22.336Z,2.160
2023-03-01T05:40:22.062Z,2.160
2023-03-01T05:41:21.719Z,2.154
2023-03-01T05:42:21.601Z,2.120
2023-03-01T05:43:21.831Z,2.105
2023-03-01T05:44:21.825Z,2.085
2023-03-01T05:45:22.043Z,2.075
2023-03-01T05:46:22.275Z,2.045
2023-03-01T05:47:21.915Z,2.005
2023-03-01T05:48:21.726Z,1.975
2023-03-01T05:49:22.015Z,1.990
2023-03-01T05:50:21.824Z,1.995
2023-03-01T05:51:22.734Z,1.970
2023-03-01T05:52:21.965Z,1.960
2023-03-01T05:53:21.613Z,1.919
2023-03-01T05:54:21.773Z,1.899
2023-03-01T05:55:22.187Z,1.894
2023-03-01T05:56:21.648Z,1.874
2023-03-01T05:57:21.455Z,1.899
2023-03-01T05:58:21.515Z,1.924
2023-03-01T05:59:22.158Z,1.919
2023-03-01T06:00:23.007Z,1.904
2023-03-01T06:01:22.264Z,1.860
2023-03-01T06:02:21.484Z,1.894
2023-03-01T06:03:22.153Z,1.889
2023-03-01T06:04:21.550Z,1.850
2023-03-01T06:05:21.915Z,1.815
2023-03-01T06:06:21.130Z,1.779
2023-03-01T06:07:21.543Z,1.789
2023-03-01T06:08:21.646Z,1.779
2023-03-01T06:09:21.868Z,1.764
2023-03-01T06:10:22.217Z,1.754
2023-03-01T06:11:22.271Z,1.715
2023-03-01T06:12:22.670Z,1.720
2023-03-01T06:13:22.098Z,1.694
2023-03-01T06:14:21.201Z,1.699
2023-03-01T06:15:22.540Z,1.740
2023-03-01T06:16:22.080Z,1.745
2023-03-01T06:17:22.701Z,1.720
2023-03-01T06:18:22.467Z,1.735
2023-03-01T06:19:21.551Z,1.730
2023-03-01T06:20:22.600Z,1.769
2023-03-01T06:21:22.110Z,1.789
2023-03-01T06:22:22.734Z,1.821
2023-03-01T06:23:22.107Z,1.804
2023-03-01T06:24:21.451Z,1.735
2023-03-01T06:25:23.136Z,1.725
2023-03-01T06:26:21.942Z,1.769
2023-03-01T06:27:26.612Z,1.75
2023-03-01T06:28:21.274Z,1.759
2023-03-01T06:29:22.004Z,1.75
2023-03-01T06:30:22.559Z,1.730
2023-03-01T06:31:21.549Z,1.735
2023-03-01T06:32:22.262Z,1.759
2023-03-01T06:33:26.871Z,1.794
2023-03-01T06:34:21.944Z,1.799
2023-03-01T06:35:26.102Z,1.817
2023-03-01T06:36:22.714Z,1.815
2023-03-01T06:37:22.509Z,1.832
2023-03-01T06:38:22.160Z,1.845
2023-03-01T06:39:22.234Z,1.860
2023-03-01T06:40:21.942Z,1.893
2023-03-01T06:41:21.637Z,1.867
2023-03-01T06:42:21.840Z,1.879
2023-03-01T06:43:21.826Z,1.853
2023-03-01T06:44:21.927Z,1.883
2023-03-01T06:45:21.854Z,1.904
2023-03-01T06:46:21.646Z,1.909
2023-03-01T06:47:35.574Z,1.934
2023-03-01T06:48:21.745Z,1.965
2023-03-01T06:49:21.374Z,1.940
2023-03-01T06:50:22.623Z,1.972
2023-03-01T06:51:36.183Z,1.940
2023-03-01T06:52:21.757Z,1.940
2023-03-01T06:53:21.559Z,1.934
2023-03-01T06:54:21.607Z,1.914
2023-03-01T06:55:21.958Z,1.909
2023-03-01T06:56:22.578Z,1.899
2023-03-01T06:57:21.998Z,1.889
2023-03-01T06:58:21.902Z,1.884
2023-03-01T06:59:22.309Z,1.883
2023-03-01T07:00:23.738Z,1.874
2023-03-01T07:01:23.334Z,1.868
2023-03-01T07:02:22.255Z,1.850
2023-03-01T07:03:22.746Z,1.884
2023-03-01T07:04:21.615Z,1.899
2023-03-01T07:05:22.450Z,1.914
2023-03-01T07:06:22.168Z,1.950
2023-03-01T07:07:21.607Z,1.975
2023-03-01T07:08:22.267Z,2.015
2023-03-01T07:09:21.952Z,2.009
2023-03-01T07:10:21.645Z,2.039
2023-03-01T07:11:21.996Z,2.065
2023-03-01T07:12:22.213Z,2.099
2023-03-01T07:13:21.879Z,2.109
2023-03-01T07:14:22.506Z,2.109
2023-03-01T07:15:22.214Z,2.120
2023-03-01T07:16:23.044Z,2.189
2023-03-01T07:17:22.289Z,2.214
2023-03-01T07:18:22.215Z,2.275
2023-03-01T07:19:22.424Z,2.309
2023-03-01T07:20:22.653Z,2.355
2023-03-01T07:21:21.742Z,2.430
2023-03-01T07:22:21.585Z,2.480
2023-03-01T07:23:22.226Z,2.480
2023-03-01T07:24:22.256Z,2.5
2023-03-01T07:25:22.641Z,2.484
2023-03-01T07:26:24.574Z,2.509
2023-03-01T07:27:22.860Z,2.525
2023-03-01T07:28:22.538Z,2.575
2023-03-01T07:29:21.712Z,2.609
2023-03-01T07:30:21.698Z,2.687
2023-03-01T07:31:21.729Z,2.755
2023-03-01T07:32:22.395Z,2.821
2023-03-01T07:33:22.411Z,2.845
2023-03-01T07:34:21.778Z,2.872
2023-03-01T07:35:22.674Z,2.940
2023-03-01T07:36:22.052Z,2.954
2023-03-01T07:37:22.911Z,3
2023-03-01T07:38:22.348Z,3.039
2023-03-01T07:39:22.664Z,3.095
2023-03-01T07:40:22.440Z,3.125
2023-03-01T07:41:22.928Z,3.171
2023-03-01T07:42:22.444Z,3.154
2023-03-01T07:43:22.503Z,3.142
2023-03-01T07:44:22.230Z,3.219
2023-03-01T07:45:22.030Z,3.289
2023-03-01T07:46:23.018Z,3.361
2023-03-01T07:47:22.302Z,3.430
2023-03-01T07:48:22.653Z,3.460
2023-03-01T07:49:23.313Z,3.515
2023-03-01T07:50:22.637Z,3.579
2023-03-01T07:51:22.397Z,3.631
2023-03-01T07:52:21.778Z,3.710
2023-03-01T07:53:22.341Z,3.769
2023-03-01T07:54:22.020Z,3.821
2023-03-01T07:55:22.817Z,3.900
2023-03-01T07:56:22.303Z,3.940
2023-03-01T07:57:22.375Z,3.990
2023-03-01T07:58:22.905Z,4.059
2023-03-01T07:59:22.018Z,4.136
2023-03-01T08:00:23.699Z,4.203
2023-03-01T08:01:25.741Z,4.255
2023-03-01T08:02:22.565Z,4.322
2023-03-01T08:03:22.417Z,4.412
2023-03-01T08:04:23.106Z,4.467
2023-03-01T08:05:23.731Z,4.532
2023-03-01T08:06:21.540Z,4.585
2023-03-01T08:07:22.925Z,4.662
2023-03-01T08:08:22.284Z,4.722
2023-03-01T08:09:22.906Z,4.775
2023-03-01T08:10:22.513Z,4.827
2023-03-01T08:11:23.000Z,4.888
2023-03-01T08:12:22.110Z,4.960
2023-03-01T08:13:23.087Z,5.019
2023-03-01T08:14:23.236Z,5.105
2023-03-01T08:15:23.488Z,5.193
2023-03-01T08:16:22.885Z,5.224
2023-03-01T08:17:22.780Z,5.315
2023-03-01T08:18:22.657Z,5.374
2023-03-01T08:19:22.108Z,5.454
2023-03-01T08:20:22.760Z,5.519
2023-03-01T08:21:23.262Z,5.590
2023-03-01T08:22:22.819Z,5.665
2023-03-01T08:23:22.366Z,5.730
2023-03-01T08:24:22.315Z,5.804
2023-03-01T08:25:22.824Z,5.868
2023-03-01T08:26:22.797Z,5.940
2023-03-01T08:27:23.637Z,6.014
2023-03-01T08:28:23.049Z,6.085
2023-03-01T08:29:23.621Z,6.165
2023-03-01T08:30:24.496Z,6.230
2023-03-01T08:31:22.504Z,6.289
2023-03-01T08:32:23.227Z,6.355
2023-03-01T08:33:22.363Z,6.405
2023-03-01T08:34:23.570Z,6.465
2023-03-01T08:35:23.149Z,6.550
2023-03-01T08:36:22.675Z,6.590
2023-03-01T08:37:22.597Z,6.671
2023-03-01T08:38:22.432Z,6.723
2023-03-01T08:39:22.582Z,6.800
2023-03-01T08:40:22.395Z,6.888
2023-03-01T08:41:22.178Z,6.980
2023-03-01T08:42:19.741Z,7.030
2023-03-01T08:48:24.923Z,7.375
2023-03-01T08:49:19.769Z,7.449
2023-03-01T08:50:25.488Z,7.570
2023-03-01T08:51:19.626Z,7.625
2023-03-01T08:52:25.009Z,7.637
2023-03-01T08:53:19.421Z,7.678
2023-03-01T08:54:20.028Z,7.684
2023-03-01T08:55:19.286Z,7.703
2023-03-01T08:56:25.230Z,7.744
2023-03-01T08:57:19.914Z,7.789
2023-03-01T08:58:20.409Z,7.855
2023-03-01T08:59:20.042Z,7.844
2023-03-01T09:00:27.025Z,7.866
2023-03-01T09:01:20.672Z,7.861
2023-03-01T09:02:28.511Z,7.874
2023-03-01T09:03:20.182Z,7.940
2023-03-01T09:04:27.954Z,7.960
2023-03-01T09:05:20.469Z,8.020
2023-03-01T09:06:28.368Z,7.989
2023-03-01T09:07:20.163Z,7.954
2023-03-01T09:08:20.107Z,7.965
2023-03-01T09:09:20.817Z,7.960
2023-03-01T09:10:19.843Z,7.919
2023-03-01T09:11:19.962Z,7.897
2023-03-01T09:12:20.054Z,8.029
2023-03-01T09:13:20.829Z,8.069
2023-03-01T09:14:20.288Z,8.128
2023-03-01T09:15:21.003Z,8.142
2023-03-01T09:16:20.385Z,8.079
2023-03-01T09:17:20.011Z,8.005
2023-03-01T09:18:20.003Z,8.003
2023-03-01T09:19:20.332Z,8.085
2023-03-01T09:20:20.579Z,8.087
2023-03-01T09:21:27.474Z,8.095
2023-03-01T09:22:20.052Z,8.163
2023-03-01T09:23:20.160Z,8.215
2023-03-01T09:24:20.369Z,8.260
2023-03-01T09:25:20.104Z,8.333
2023-03-01T09:26:20.056Z,8.355
2023-03-01T09:27:20.049Z,8.388
2023-03-01T09:28:29.487Z,8.399
2023-03-01T09:29:19.673Z,8.449
2023-03-01T09:30:20.129Z,8.529
2023-03-01T09:31:19.941Z,8.621
2023-03-01T09:32:41.384Z,8.704
2023-03-01T09:33:20.572Z,8.699
2023-03-01T09:34:20.501Z,8.620
2023-03-01T09:35:20.500Z,8.664
2023-03-01T09:36:20.162Z,8.649
2023-03-01T09:37:20.089Z,8.604
2023-03-01T09:38:20.429Z,8.579
2023-03-01T09:39:20.492Z,8.520
2023-03-01T09:40:19.777Z,8.484
2023-03-01T09:41:19.975Z,8.520
2023-03-01T09:42:20.094Z,8.505
2023-03-01T09:43:20.468Z,8.413
2023-03-01T09:44:20.099Z,8.354
2023-03-01T09:45:20.355Z,8.279
2023-03-01T09:46:19.201Z,8.189
2023-03-01T09:47:20.003Z,8.137
2023-03-01T09:48:19.702Z,8.120
2023-03-01T09:49:20.622Z,8.137
2023-03-01T09:50:20.385Z,8.131
2023-03-01T09:51:20.173Z,8.131
2023-03-01T09:52:20.122Z,8.189
2023-03-01T09:53:20.491Z,8.215
2023-03-01T09:54:20.566Z,8.265
2023-03-01T09:55:20.048Z,8.364
2023-03-01T09:56:20.440Z,8.404
2023-03-01T09:57:19.762Z,8.355
2023-03-01T09:58:19.556Z,8.274
2023-03-01T09:59:22.255Z,8.383
2023-03-01T10:00:21.361Z,8.460
2023-03-01T10:01:20.590Z,8.439
2023-03-01T10:02:20.263Z,8.5
2023-03-01T10:03:20.328Z,8.550
2023-03-01T10:04:20.401Z,8.560
2023-03-01T10:05:20.202Z,8.515
2023-03-01T10:06:34.055Z,8.470
2023-03-01T10:07:20.144Z,8.449
2023-03-01T10:08:19.850Z,8.520
2023-03-01T10:09:20.213Z,8.520
2023-03-01T10:10:20.049Z,8.479
2023-03-01T10:11:21.339Z,8.484
2023-03-01T10:12:19.955Z,8.475
2023-03-01T10:13:20.149Z,8.435
2023-03-01T10:14:21.046Z,8.444
2023-03-01T10:15:20.832Z,8.454
2023-03-01T10:16:20.185Z,8.439
2023-03-01T10:17:20.435Z,8.475
2023-03-01T10:18:20.312Z,8.515
2023-03-01T10:19:20.077Z,8.605
2023-03-01T10:20:20.544Z,8.649
2023-03-01T10:21:20.279Z,8.671
2023-03-01T10:22:20.292Z,8.680
2023-03-01T10:23:21.167Z,8.671
2023-03-01T10:24:20.217Z,8.760
2023-03-01T10:25:20.065Z,8.958
2023-03-01T10:26:20.149Z,9.050
2023-03-01T10:27:20.053Z,9.045
2023-03-01T10:28:19.735Z,9.020
2023-03-01T10:29:20.223Z,8.925
2023-03-01T10:30:20.041Z,8.954
2023-03-01T10:31:19.702Z,9.015
2023-03-01T10:32:20.191Z,9.166
2023-03-01T10:33:20.294Z,9.159
2023-03-01T10:34:20.129Z,9.121
2023-03-01T10:35:20.755Z,9.029
2023-03-01T10:36:19.621Z,9.060
2023-03-01T10:37:20.289Z,9.055
2023-03-01T10:38:19.885Z,9.048
2023-03-01T10:39:20.366Z,9.038
2023-03-01T10:40:20.100Z,9.060
2023-03-01T10:41:21.714Z,9.128
2023-03-01T10:42:21.849Z,9.131
2023-03-01T10:43:22.277Z,9.199
2023-03-01T10:44:22.212Z,9.234
2023-03-01T10:45:22.119Z,9.239
2023-03-01T10:46:22.765Z,9.244
2023-03-01T10:47:22.808Z,9.166
2023-03-01T10:48:22.232Z,9.154
2023-03-01T10:49:23.428Z,9.166
2023-03-01T10:50:22.534Z,9.189
2023-03-01T10:51:22.770Z,9.220
2023-03-01T10:52:22.150Z,9.25
2023-03-01T10:53:22.783Z,9.295
2023-03-01T10:54:22.956Z,9.310
2023-03-01T10:55:22.825Z,9.310
2023-03-01T10:56:23.310Z,9.371
2023-03-01T10:57:22.753Z,9.444
2023-03-01T10:58:22.293Z,9.510
2023-03-01T10:59:22.572Z,9.585
2023-03-01T11:00:23.228Z,9.642
2023-03-01T11:01:24.261Z,9.664
2023-03-01T11:02:25.277Z,9.739
2023-03-01T11:03:24.013Z,9.833
2023-03-01T11:04:23.672Z,9.939
2023-03-01T11:05:24.658Z,10.02
2023-03-01T11:06:23.335Z,10.06
2023-03-01T11:07:23.257Z,10.10
2023-03-01T11:08:24.420Z,10.14
2023-03-01T11:09:22.342Z,10.24
2023-03-01T11:10:23.158Z,10.32
2023-03-01T11:11:22.346Z,10.32
2023-03-01T11:12:22.436Z,10.35
2023-03-01T11:13:22.799Z,10.43
2023-03-01T11:14:27.156Z,10.52
2023-03-01T11:15:23.287Z,10.60
2023-03-01T11:16:23.445Z,10.60
2023-03-01T11:17:22.713Z,10.60
2023-03-01T11:18:26.619Z,10.70
2023-03-01T11:19:22.796Z,10.73
2023-03-01T11:20:24.690Z,10.65
2023-03-01T11:21:22.465Z,10.62
2023-03-01T11:22:22.750Z,10.55
2023-03-01T11:23:27.613Z,10.46
2023-03-01T11:24:22.210Z,10.51
2023-03-01T11:25:23.101Z,10.56
2023-03-01T11:26:23.367Z,10.61
2023-03-01T11:27:28.799Z,10.94
2023-03-01T11:28:22.837Z,10.93
2023-03-01T11:29:22.520Z,10.80
2023-03-01T11:30:23.433Z,10.80
2023-03-01T11:31:23.025Z,10.82
2023-03-01T11:32:21.948Z,10.81
2023-03-01T11:33:22.576Z,10.84
2023-03-01T11:34:22.881Z,10.88
2023-03-01T11:35:22.444Z,10.93
2023-03-01T11:36:22.561Z,10.97
2023-03-01T11:37:23.745Z,10.99
2023-03-01T11:38:22.896Z,11.00
2023-03-01T11:39:22.747Z,10.96
2023-03-01T11:40:24.067Z,10.91
2023-03-01T11:41:23.217Z,10.87
2023-03-01T11:42:22.315Z,10.94
2023-03-01T11:43:37.052Z,10.98
2023-03-01T11:44:23.130Z,11.01
2023-03-01T11:45:22.280Z,11.05
2023-03-01T11:46:22.163Z,11.06
2023-03-01T11:47:22.032Z,11.18
2023-03-01T11:48:22.863Z,11.33
2023-03-01T11:49:22.067Z,11.25
2023-03-01T11:50:23.492Z,11.22
2023-03-01T11:51:22.771Z,11.19
2023-03-01T11:52:22.213Z,11.12
2023-03-01T11:53:22.498Z,11.10
2023-03-01T11:54:22.489Z,11.11
2023-03-01T11:55:23.061Z,11.10
2023-03-01T11:56:23.872Z,11.12
2023-03-01T11:57:25.019Z,11.16
2023-03-01T11:58:22.027Z,11.18
2023-03-01T11:59:22.999Z,11.14
2023-03-01T12:00:23.466Z,11.13
2023-03-01T12:01:42.657Z,11.15
2023-03-01T12:02:22.962Z,11.21
2023-03-01T12:03:22.508Z,11.52
2023-03-01T12:04:23.008Z,11.62
2023-03-01T12:05:22.224Z,11.56
2023-03-01T12:06:23.533Z,11.52
2023-03-01T12:07:22.212Z,11.53
2023-03-01T12:08:22.653Z,11.51
2023-03-01T12:09:44.440Z,11.41
2023-03-01T12:10:22.451Z,11.35
2023-03-01T12:11:22.440Z,11.28
2023-03-01T12:12:22.338Z,11.30
2023-03-01T12:13:23.460Z,11.40
2023-03-01T12:14:22.863Z,11.44
2023-03-01T12:15:23.051Z,11.32
2023-03-01T12:16:37.582Z,11.33
2023-03-01T12:17:22.709Z,11.39
2023-03-01T12:18:22.932Z,11.45
2023-03-01T12:19:21.827Z,11.60
2023-03-01T12:20:22.424Z,11.68
2023-03-01T12:21:22.091Z,11.67
2023-03-01T12:22:23.026Z,11.71
2023-03-01T12:23:22.463Z,11.78
2023-03-01T12:24:22.883Z,11.83
2023-03-01T12:25:22.232Z,11.88
2023-03-01T12:26:22.755Z,11.93
2023-03-01T12:27:22.446Z,11.97
2023-03-01T12:28:22.478Z,12.01
2023-03-01T12:29:22.541Z,12.06
2023-03-01T12:30:22.774Z,12.11
2023-03-01T12:31:22.682Z,12.18
2023-03-01T12:32:22.698Z,12.12
2023-03-01T12:33:22.919Z,12.08
2023-03-01T12:34:22.327Z,12.05
2023-03-01T12:35:22.586Z,12.03
2023-03-01T12:36:22.908Z,12.08
2023-03-01T12:37:22.823Z,12.05
2023-03-01T12:38:22.353Z,12.04
2023-03-01T12:39:22.561Z,11.96
2023-03-01T12:40:22.772Z,11.98
2023-03-01T12:41:22.636Z,12.02
2023-03-01T12:42:22.708Z,12.26
2023-03-01T12:43:23.097Z,12.27
2023-03-01T12:44:22.800Z,12.27
2023-03-01T12:45:23.344Z,12.30
2023-03-01T12:46:23.026Z,12.30
2023-03-01T12:47:23.789Z,12.32
2023-03-01T12:48:23.059Z,12.38
2023-03-01T12:49:22.465Z,12.43
2023-03-01T12:50:22.708Z,12.38
2023-03-01T12:51:22.670Z,12.44
2023-03-01T12:52:22.940Z,12.53
2023-03-01T12:53:22.762Z,12.64
2023-03-01T12:54:23.225Z,12.73
2023-03-01T12:55:23.217Z,12.85
2023-03-01T12:56:22.362Z,12.94
2023-03-01T12:57:22.565Z,12.98
2023-03-01T12:58:23.663Z,13.02